Weather History for Canton, GA

Change the Weather History Date:

Saturday, October 29, 2011

  Actual Average (KGVL) Record (KGVL)
Temperature  
Mean Temperature 46 °F 58 °F  
Max Temperature 55 °F 68 °F 84 °F (1991)
Min Temperature 37 °F 48 °F 26 °F (1952)
Degree Days  
Heating Degree Days 19 8  
Month to date heating degree days 129  
Since 1 July heating degree days 142  
Cooling Degree Days 0 1  
Month to date cooling degree days 42  
Year to date cooling degree days 1583  
Moisture  
Dew Point 38 °F    
Average Humidity 77    
Maximum Humidity 100    
Minimum Humidity 44    
Precipitation  
Precipitation 0.00 in 0.12 in 1.41 in (1935)
Month to date precipitation 3.88  
Year to date precipitation 44.81  
Sea Level Pressure  
Sea Level Pressure 30.07 in    
Wind  
Wind Speed 5 mph ()    
Max Wind Speed 13 mph    
Max Gust Speed 23 mph    
Visibility 8.4 miles    
Events      
T = Trace of Precipitation, MM = Missing Value Source: Averaged Metar Reports

Daily Weather History Graph

Daily Weather History Graph

Search for Another Location

Airport:

Trip Planner

Search our weather history database for the weather conditions in past years. The results will help you decide how hot, cold, wet, or windy it might be!

Date:

Astronomy

Oct. 29, 2011 Rise Set
Actual Time 7:54 AM EDT 6:47 PM EDT
Civil Twilight 7:28 AM EDT 7:13 PM EDT
Nautical Twilight 6:59 AM EDT 7:42 PM EDT
Astronomical Twilight 6:30 AM EDT 8:12 PM EDT
Moon 11:07 AM EDT 9:18 PM EDT
Length of Visible Light 11h 44m
Length of Day
10h 52m
Waxing Crescent, 11% of the Moon is Illuminated
Oct 29
Waxing Crescent
Nov 2
First Quarter
Nov 10
Full
Nov 18
Last Quarter
Nov 25
New

Hourly Weather History & Observations

Time (EDT) Temp. Windchill Dew Point Humidity Pressure Visibility Wind Dir Wind Speed Gust Speed Precip Events Conditions
12:15 AM 46.4 °F - 46.4 °F 100% 30.00 in 2.0 mi Calm Calm - N/A   Overcast
12:35 AM 46.4 °F - 46.4 °F 100% 30.00 in 2.5 mi Calm Calm - N/A   Light Drizzle
12:55 AM 46.4 °F - 46.4 °F 100% 30.00 in 2.5 mi Calm Calm - N/A   Overcast
1:15 AM 46.4 °F 44.3 °F 46.4 °F 100% 30.00 in 2.0 mi NW 4.6 mph - N/A   Overcast
1:35 AM 44.6 °F 43.1 °F 44.6 °F 100% 30.00 in 1.8 mi West 3.5 mph - N/A   Overcast
2:15 AM 44.6 °F 42.2 °F 44.6 °F 100% 30.01 in 3.0 mi West 4.6 mph - N/A   Light Drizzle
2:55 AM 42.8 °F 39.3 °F 42.8 °F 100% 30.01 in 3.0 mi WNW 5.8 mph - N/A   Light Drizzle
3:15 AM 42.8 °F 39.3 °F 42.8 °F 100% 30.01 in 3.0 mi NW 5.8 mph - N/A   Overcast
3:35 AM 42.8 °F 38.6 °F 42.8 °F 100% 30.00 in 3.0 mi NW 6.9 mph - N/A   Light Drizzle
3:55 AM 42.8 °F 39.3 °F 42.8 °F 100% 30.01 in 4.0 mi NW 5.8 mph - N/A   Overcast
4:15 AM 42.8 °F 38.6 °F 42.8 °F 100% 30.01 in 4.0 mi NW 6.9 mph - N/A   Overcast
4:35 AM 42.8 °F 38.6 °F 42.8 °F 100% 30.02 in 5.0 mi NNW 6.9 mph - N/A   Overcast
4:55 AM 42.8 °F 38.6 °F 42.8 °F 100% 30.02 in 7.0 mi NW 6.9 mph - N/A   Overcast
5:15 AM 42.8 °F 37.5 °F 42.8 °F 100% 30.02 in 7.0 mi NW 9.2 mph - N/A   Overcast
5:35 AM 41.0 °F 36.4 °F 41.0 °F 100% 30.02 in 7.0 mi NW 6.9 mph - N/A   Overcast
5:55 AM 41.0 °F 37.1 °F 41.0 °F 100% 30.03 in 7.0 mi WNW 5.8 mph - N/A   Overcast
6:15 AM 41.0 °F 37.1 °F 41.0 °F 100% 30.04 in 7.0 mi WNW 5.8 mph - N/A   Scattered Clouds
6:35 AM 41.0 °F 38.0 °F 41.0 °F 100% 30.04 in 7.0 mi WNW 4.6 mph - N/A   Mostly Cloudy
6:55 AM 41.0 °F 38.0 °F 41.0 °F 100% 30.04 in 7.0 mi WNW 4.6 mph - N/A   Mostly Cloudy
7:15 AM 41.0 °F 36.4 °F 41.0 °F 100% 30.03 in 10.0 mi NW 6.9 mph - N/A   Scattered Clouds
7:35 AM 41.0 °F 38.0 °F 41.0 °F 100% 30.03 in 10.0 mi NW 4.6 mph - N/A   Clear
7:55 AM 41.0 °F 37.1 °F 41.0 °F 100% 30.03 in 10.0 mi NW 5.8 mph - N/A   Clear
8:15 AM 39.2 °F 34.2 °F 39.2 °F 100% 30.03 in 7.0 mi NW 6.9 mph - N/A   Clear
8:35 AM 39.2 °F 33.6 °F 39.2 °F 100% 30.04 in 10.0 mi NW 8.1 mph - N/A   Clear
8:55 AM 41.0 °F 36.4 °F 41.0 °F 100% 30.04 in 10.0 mi NW 6.9 mph 21.9 mph N/A   Clear
9:15 AM 41.0 °F 35.8 °F 41.0 °F 100% 30.05 in 10.0 mi NNW 8.1 mph - N/A   Clear
9:35 AM 42.8 °F 38.0 °F 41.0 °F 93% 30.06 in 10.0 mi NNW 8.1 mph - N/A   Clear
9:55 AM 42.8 °F 37.5 °F 39.2 °F 87% 30.07 in 10.0 mi NNW 9.2 mph - N/A   Clear
10:15 AM 44.6 °F 40.2 °F 37.4 °F 76% 30.07 in 10.0 mi NNW 8.1 mph - N/A   Clear
10:35 AM 44.6 °F 41.4 °F 37.4 °F 76% 30.09 in 10.0 mi North 5.8 mph - N/A   Clear
10:55 AM 46.4 °F 41.1 °F 35.6 °F 66% 30.08 in 10.0 mi NNW 11.5 mph 21.9 mph N/A   Clear
11:15 AM 48.2 °F - 35.6 °F 62% 30.09 in 10.0 mi NNW 8.1 mph 18.4 mph N/A   Clear
11:35 AM 50.0 °F - 35.6 °F 58% 30.09 in 10.0 mi NW 9.2 mph 19.6 mph N/A   Clear
11:55 AM 50.0 °F - 33.8 °F 54% 30.09 in 10.0 mi NNW 12.7 mph 21.9 mph N/A   Clear
12:15 PM 51.8 °F - 33.8 °F 50% 30.11 in 10.0 mi North 10.4 mph 23.0 mph N/A   Clear
12:35 PM 53.6 °F - 33.8 °F 47% 30.11 in 10.0 mi North 8.1 mph - N/A   Clear
1:15 PM 53.6 °F - 32.0 °F 44% 30.10 in 10.0 mi North 9.2 mph 18.4 mph N/A   Clear
1:55 PM 55.4 °F - 33.8 °F 44% 30.08 in 10.0 mi NNW 8.1 mph 16.1 mph N/A   Clear
2:15 PM 55.4 °F - 33.8 °F 44% 30.08 in 10.0 mi North 10.4 mph 18.4 mph N/A   Clear
2:35 PM 55.4 °F - 33.8 °F 44% 30.08 in 10.0 mi NNW 3.5 mph - N/A   Clear
2:55 PM 55.4 °F - 33.8 °F 44% 30.07 in 10.0 mi NW 6.9 mph - N/A   Clear
3:15 PM 55.4 °F - 33.8 °F 44% 30.07 in 10.0 mi NNW 8.1 mph - N/A   Clear
3:35 PM 55.4 °F - 35.6 °F 47% 30.07 in 10.0 mi North 5.8 mph 16.1 mph N/A   Clear
3:55 PM 55.4 °F - 35.6 °F 47% 30.07 in 10.0 mi NW 8.1 mph - N/A   Clear
4:15 PM 55.4 °F - 33.8 °F 44% 30.07 in 10.0 mi NW 6.9 mph - N/A   Clear
4:35 PM 55.4 °F - 33.8 °F 44% 30.07 in 10.0 mi NW 11.5 mph 18.4 mph N/A   Clear
4:55 PM 53.6 °F - 33.8 °F 47% 30.08 in 10.0 mi NW 10.4 mph 17.3 mph N/A   Clear
5:15 PM 53.6 °F - 33.8 °F 47% 30.08 in 10.0 mi NW 8.1 mph 16.1 mph N/A   Clear
5:35 PM 53.6 °F - 35.6 °F 51% 30.08 in 10.0 mi NW 6.9 mph - N/A   Clear
5:55 PM 51.8 °F - 35.6 °F 54% 30.08 in 10.0 mi NNW 6.9 mph 16.1 mph N/A   Clear
6:15 PM 51.8 °F - 35.6 °F 54% 30.09 in 10.0 mi North 4.6 mph - N/A   Clear
6:35 PM 50.0 °F - 35.6 °F 58% 30.10 in 10.0 mi NW 5.8 mph - N/A   Clear
6:55 PM 50.0 °F - 35.6 °F 58% 30.11 in 10.0 mi NW 3.5 mph - N/A   Clear
7:15 PM 46.4 °F - 35.6 °F 66% 30.11 in 10.0 mi Calm Calm - N/A   Clear
7:35 PM 48.2 °F - 35.6 °F 62% 30.11 in 10.0 mi Calm Calm - N/A   Clear
8:15 PM 44.6 °F - 35.6 °F 71% 30.13 in 10.0 mi Calm Calm - N/A   Clear
8:35 PM 42.8 °F - 35.6 °F 76% 30.13 in 10.0 mi Calm Calm - N/A   Clear
8:55 PM 42.8 °F 41.1 °F 37.4 °F 81% 30.13 in 10.0 mi NW 3.5 mph - N/A   Clear
9:15 PM 42.8 °F 40.1 °F 37.4 °F 81% 30.13 in 10.0 mi NNW 4.6 mph - N/A   Clear
9:35 PM 42.8 °F - 35.6 °F 76% 30.14 in 10.0 mi Calm Calm - N/A   Clear
9:55 PM 44.6 °F - 35.6 °F 71% 30.15 in 10.0 mi Calm Calm - N/A   Clear
10:15 PM 42.8 °F - 35.6 °F 76% 30.16 in 10.0 mi Calm Calm - N/A   Clear
10:35 PM 42.8 °F - 35.6 °F 76% 30.16 in 10.0 mi Calm Calm - N/A   Clear
10:55 PM 41.0 °F - 35.6 °F 81% 30.17 in 10.0 mi Calm Calm - N/A   Clear
11:15 PM 41.0 °F - 37.4 °F 87% 30.17 in 10.0 mi Calm Calm - N/A   Clear
11:35 PM 37.4 °F - 35.6 °F 93% 30.17 in 10.0 mi Calm Calm - N/A   Clear
11:55 PM 37.4 °F - 35.6 °F 93% 30.18 in 10.0 mi Calm Calm - N/A   Clear